EDDH/HAM METAR and TAF weather

Enter ICAO airport designator
Station Type Date Time Source
EDDH METAR 2017/02/19 22:50 UTC NOAA

EDDH 192250Z 26009KT 8000 BKN006 06/05 Q1016 NOSIG


Station Type Date Time Source
EDDH Decoded METAR 2017/02/19 22:50 UTC NOAA

Hamburg-Fuhlsbuettel, Germany (EDDH) 53-38N 010-00E 15M
Feb 19, 2017 - 05:50 PM EST / 2017.02.19 2250 UTC
Wind: from the W (260 degrees) at 10 MPH (9 KT):0
Visibility: 4 mile(s):0
Sky conditions: mostly cloudy
Temperature: 42 F (6 C)
Dew Point: 41 F (5 C)
Relative Humidity: 93%
Pressure (altimeter): 30.00 in. Hg (1016 hPa)
ob: EDDH 192250Z 26009KT 8000 BKN006 06/05 Q1016 NOSIG
cycle: 23

Station Type Date Time Source
EDDH TAF 2017/02/19 18:27 UTC NOAA

TAF EDDH 191700Z 1918/2024 24009KT 2000 BR BKN002
TEMPO 1918/2005 0900 FG OVC000 PROB30
TEMPO 2000/2005 3000 BR SCT002 BKN015
TEMPO 2005/2014 3500 RA BKN007
BECMG 2007/2009 22015G25KT
TEMPO 2017/2020 3500 RA BKN007
BECMG 2017/2020 28015G25KT
BECMG 2020/2023 7000 SCT020


Example: see airport list